sensor_id;sensor_type;location;lat;lon;timestamp;pressure;altitude;pressure_sealevel;temperature;humidity
71126;BME280;58785;55.566;38.058;2023-04-06T00:01:48;100981.28;;;5.61;74.88
71126;BME280;58785;55.566;38.058;2023-04-06T00:04:13;100970.22;;;5.55;74.37
71126;BME280;58785;55.566;38.058;2023-04-06T00:06:39;100986.09;;;5.55;74.98
71126;BME280;58785;55.566;38.058;2023-04-06T00:09:04;100973.44;;;5.45;74.47
71126;BME280;58785;55.566;38.058;2023-04-06T00:11:30;100974.56;;;5.41;74.96
71126;BME280;58785;55.566;38.058;2023-04-06T00:13:55;100980.72;;;5.42;74.90
71126;BME280;58785;55.566;38.058;2023-04-06T00:16:21;100983.53;;;5.39;74.84
71126;BME280;58785;55.566;38.058;2023-04-06T00:18:47;100988.91;;;5.37;74.90
71126;BME280;58785;55.566;38.058;2023-04-06T00:21:13;100988.34;;;5.32;75.15
71126;BME280;58785;55.566;38.058;2023-04-06T00:23:40;100990.31;;;5.29;75.26
71126;BME280;58785;55.566;38.058;2023-04-06T00:26:06;100985.31;;;5.24;75.10
71126;BME280;58785;55.566;38.058;2023-04-06T00:28:32;100982.84;;;5.21;75.37
71126;BME280;58785;55.566;38.058;2023-04-06T00:30:57;100987.38;;;5.19;75.07
71126;BME280;58785;55.566;38.058;2023-04-06T00:33:23;100972.91;;;5.10;75.57
71126;BME280;58785;55.566;38.058;2023-04-06T00:35:49;100979.97;;;5.10;75.38
71126;BME280;58785;55.566;38.058;2023-04-06T00:38:16;100983.66;;;5.07;75.41
71126;BME280;58785;55.566;38.058;2023-04-06T00:40:43;100988.09;;;5.07;75.87
71126;BME280;58785;55.566;38.058;2023-04-06T00:43:11;100974.38;;;5.00;75.49
71126;BME280;58785;55.566;38.058;2023-04-06T00:45:41;100990.75;;;5.07;75.77
71126;BME280;58785;55.566;38.058;2023-04-06T00:48:07;100978.81;;;5.00;75.64
71126;BME280;58785;55.566;38.058;2023-04-06T00:50:33;100976.19;;;5.00;75.76
71126;BME280;58785;55.566;38.058;2023-04-06T00:52:59;100984.09;;;5.00;76.02
71126;BME280;58785;55.566;38.058;2023-04-06T00:55:29;100975.22;;;5.01;75.71
71126;BME280;58785;55.566;38.058;2023-04-06T00:57:57;100975.63;;;4.95;75.73
71126;BME280;58785;55.566;38.058;2023-04-06T01:00:24;100983.44;;;4.96;75.72
71126;BME280;58785;55.566;38.058;2023-04-06T01:02:50;100981.66;;;4.97;75.89
71126;BME280;58785;55.566;38.058;2023-04-06T01:05:15;100985.16;;;4.97;75.62
71126;BME280;58785;55.566;38.058;2023-04-06T01:07:41;100972.13;;;4.94;75.64
71126;BME280;58785;55.566;38.058;2023-04-06T01:10:07;100983.34;;;4.98;75.64
71126;BME280;58785;55.566;38.058;2023-04-06T01:12:33;100983.44;;;4.96;75.83
71126;BME280;58785;55.566;38.058;2023-04-06T01:14:59;100979.28;;;4.92;75.68
71126;BME280;58785;55.566;38.058;2023-04-06T01:17:25;100981.09;;;4.92;75.71
71126;BME280;58785;55.566;38.058;2023-04-06T01:19:51;100969.06;;;4.86;75.80
71126;BME280;58785;55.566;38.058;2023-04-06T01:22:19;100975.81;;;4.92;75.92
71126;BME280;58785;55.566;38.058;2023-04-06T01:24:45;100977.09;;;4.84;76.11
71126;BME280;58785;55.566;38.058;2023-04-06T01:27:12;100977.09;;;4.84;76.26
71126;BME280;58785;55.566;38.058;2023-04-06T01:29:38;100970.22;;;4.82;76.21
71126;BME280;58785;55.566;38.058;2023-04-06T01:32:07;100971.72;;;4.86;76.02
71126;BME280;58785;55.566;38.058;2023-04-06T01:34:33;100973.69;;;4.82;75.91
71126;BME280;58785;55.566;38.058;2023-04-06T01:36:58;100967.81;;;4.77;76.13
71126;BME280;58785;55.566;38.058;2023-04-06T01:39:24;100959.88;;;4.77;76.03
71126;BME280;58785;55.566;38.058;2023-04-06T01:41:50;100966.88;;;4.78;76.04
71126;BME280;58785;55.566;38.058;2023-04-06T01:44:17;100969.88;;;4.72;76.10
71126;BME280;58785;55.566;38.058;2023-04-06T01:46:44;100962.59;;;4.61;76.49
71126;BME280;58785;55.566;38.058;2023-04-06T01:49:11;100971.16;;;4.65;76.39
71126;BME280;58785;55.566;38.058;2023-04-06T01:51:37;100970.31;;;4.65;76.52
71126;BME280;58785;55.566;38.058;2023-04-06T01:54:03;100966.22;;;4.59;76.40
71126;BME280;58785;55.566;38.058;2023-04-06T01:56:29;100982.78;;;4.63;76.54
71126;BME280;58785;55.566;38.058;2023-04-06T01:58:54;100964.38;;;4.61;76.37
71126;BME280;58785;55.566;38.058;2023-04-06T02:01:21;100977.31;;;4.66;76.26
71126;BME280;58785;55.566;38.058;2023-04-06T02:03:46;100969.81;;;4.58;76.31
71126;BME280;58785;55.566;38.058;2023-04-06T02:06:12;100983.78;;;4.60;76.69
71126;BME280;58785;55.566;38.058;2023-04-06T02:08:37;100983.72;;;4.61;76.27
71126;BME280;58785;55.566;38.058;2023-04-06T02:11:03;100986.41;;;4.60;76.34
71126;BME280;58785;55.566;38.058;2023-04-06T02:13:29;100978.50;;;4.60;76.29
71126;BME280;58785;55.566;38.058;2023-04-06T02:15:55;100991.47;;;4.65;76.28
71126;BME280;58785;55.566;38.058;2023-04-06T02:18:21;100995.69;;;4.67;76.29
71126;BME280;58785;55.566;38.058;2023-04-06T02:20:46;100995.69;;;4.67;76.35
71126;BME280;58785;55.566;38.058;2023-04-06T02:23:12;100988.06;;;4.63;76.27
71126;BME280;58785;55.566;38.058;2023-04-06T02:25:38;101000.66;;;4.57;76.74
71126;BME280;58785;55.566;38.058;2023-04-06T02:28:03;100994.88;;;4.51;77.03
71126;BME280;58785;55.566;38.058;2023-04-06T02:30:29;100993.34;;;4.47;76.70
71126;BME280;58785;55.566;38.058;2023-04-06T02:32:57;101003.91;;;4.47;76.75
71126;BME280;58785;55.566;38.058;2023-04-06T02:35:24;101007.31;;;4.49;76.77
71126;BME280;58785;55.566;38.058;2023-04-06T02:37:50;101002.22;;;4.46;76.71
71126;BME280;58785;55.566;38.058;2023-04-06T02:40:15;101001.94;;;4.50;76.41
71126;BME280;58785;55.566;38.058;2023-04-06T02:42:41;100995.56;;;4.54;76.34
71126;BME280;58785;55.566;38.058;2023-04-06T02:45:07;100996.41;;;4.55;76.32
71126;BME280;58785;55.566;38.058;2023-04-06T02:47:33;101005.75;;;4.60;76.39
71126;BME280;58785;55.566;38.058;2023-04-06T02:49:59;101005.09;;;4.57;76.04
71126;BME280;58785;55.566;38.058;2023-04-06T02:52:25;101003.41;;;4.56;76.28
71126;BME280;58785;55.566;38.058;2023-04-06T02:54:51;101013.09;;;4.55;76.72
71126;BME280;58785;55.566;38.058;2023-04-06T02:57:17;101006.88;;;4.56;76.50
71126;BME280;58785;55.566;38.058;2023-04-06T02:59:42;101014.63;;;4.59;75.67
71126;BME280;58785;55.566;38.058;2023-04-06T03:02:08;101013.69;;;4.60;75.98
71126;BME280;58785;55.566;38.058;2023-04-06T03:04:34;101009.34;;;4.59;76.25
71126;BME280;58785;55.566;38.058;2023-04-06T03:06:59;101021.19;;;4.68;75.99
71126;BME280;58785;55.566;38.058;2023-04-06T03:09:25;101020.22;;;4.69;75.79
71126;BME280;58785;55.566;38.058;2023-04-06T03:11:51;101020.84;;;4.74;75.57
71126;BME280;58785;55.566;38.058;2023-04-06T03:14:17;101027.81;;;4.75;75.82
71126;BME280;58785;55.566;38.058;2023-04-06T03:16:47;101023.66;;;4.71;75.82
71126;BME280;58785;55.566;38.058;2023-04-06T03:19:13;101035.41;;;4.81;75.69
71126;BME280;58785;55.566;38.058;2023-04-06T03:21:38;101031.63;;;4.85;75.60
71126;BME280;58785;55.566;38.058;2023-04-06T03:24:05;101042.53;;;4.95;75.80
71126;BME280;58785;55.566;38.058;2023-04-06T03:26:30;101034.16;;;5.03;75.03
71126;BME280;58785;55.566;38.058;2023-04-06T03:28:56;101037.47;;;5.06;75.19
71126;BME280;58785;55.566;38.058;2023-04-06T03:31:22;101047.63;;;5.28;74.62
71126;BME280;58785;55.566;38.058;2023-04-06T03:33:47;101043.41;;;5.40;74.37
71126;BME280;58785;55.566;38.058;2023-04-06T03:36:13;101048.16;;;5.49;74.42
71126;BME280;58785;55.566;38.058;2023-04-06T03:38:39;101048.94;;;5.65;74.13
71126;BME280;58785;55.566;38.058;2023-04-06T03:41:04;101047.53;;;5.74;73.65
71126;BME280;58785;55.566;38.058;2023-04-06T03:43:30;101050.56;;;5.82;73.93
71126;BME280;58785;55.566;38.058;2023-04-06T03:45:55;101056.84;;;5.95;73.88
71126;BME280;58785;55.566;38.058;2023-04-06T03:48:21;101058.50;;;6.11;72.88
71126;BME280;58785;55.566;38.058;2023-04-06T03:50:47;101054.63;;;6.16;73.16
71126;BME280;58785;55.566;38.058;2023-04-06T03:53:12;101055.88;;;6.25;72.28
71126;BME280;58785;55.566;38.058;2023-04-06T03:55:38;101062.19;;;6.37;72.14
71126;BME280;58785;55.566;38.058;2023-04-06T03:58:03;101070.13;;;6.37;72.52
71126;BME280;58785;55.566;38.058;2023-04-06T04:00:29;101066.31;;;6.41;71.71
71126;BME280;58785;55.566;38.058;2023-04-06T04:02:55;101064.16;;;6.47;71.38
71126;BME280;58785;55.566;38.058;2023-04-06T04:05:20;101065.56;;;6.53;71.37
71126;BME280;58785;55.566;38.058;2023-04-06T04:07:53;101069.06;;;6.53;71.86
71126;BME280;58785;55.566;38.058;2023-04-06T04:10:18;101067.91;;;6.57;71.47
71126;BME280;58785;55.566;38.058;2023-04-06T04:12:44;101066.41;;;6.53;71.23
71126;BME280;58785;55.566;38.058;2023-04-06T04:15:10;101057.53;;;6.54;71.34
71126;BME280;58785;55.566;38.058;2023-04-06T04:17:35;101063.94;;;6.65;71.32
71126;BME280;58785;55.566;38.058;2023-04-06T04:20:01;101056.50;;;6.70;70.69
71126;BME280;58785;55.566;38.058;2023-04-06T04:22:28;101073.13;;;6.86;70.62
71126;BME280;58785;55.566;38.058;2023-04-06T04:24:53;101068.38;;;6.91;70.12
71126;BME280;58785;55.566;38.058;2023-04-06T04:27:19;101076.66;;;6.99;69.73
71126;BME280;58785;55.566;38.058;2023-04-06T04:29:46;101069.56;;;7.00;69.88
71126;BME280;58785;55.566;38.058;2023-04-06T04:32:11;101080.53;;;7.08;69.37
71126;BME280;58785;55.566;38.058;2023-04-06T04:34:37;101079.19;;;7.15;68.91
71126;BME280;58785;55.566;38.058;2023-04-06T04:37:05;101073.13;;;7.13;69.37
71126;BME280;58785;55.566;38.058;2023-04-06T04:39:32;101069.75;;;7.24;68.86
71126;BME280;58785;55.566;38.058;2023-04-06T04:41:57;101060.84;;;7.25;68.83
71126;BME280;58785;55.566;38.058;2023-04-06T04:44:23;101072.84;;;7.30;68.73
71126;BME280;58785;55.566;38.058;2023-04-06T04:46:49;101062.66;;;7.24;69.00
71126;BME280;58785;55.566;38.058;2023-04-06T04:49:14;101066.50;;;7.33;68.32
71126;BME280;58785;55.566;38.058;2023-04-06T04:51:40;101061.84;;;7.49;68.34
71126;BME280;58785;55.566;38.058;2023-04-06T04:54:05;101065.66;;;7.70;67.31
71126;BME280;58785;55.566;38.058;2023-04-06T04:56:31;101073.78;;;7.82;67.04
71126;BME280;58785;55.566;38.058;2023-04-06T04:58:57;101062.38;;;7.79;67.35
71126;BME280;58785;55.566;38.058;2023-04-06T05:01:22;101064.28;;;7.90;66.91
71126;BME280;58785;55.566;38.058;2023-04-06T05:03:48;101070.25;;;8.06;66.31
71126;BME280;58785;55.566;38.058;2023-04-06T05:06:13;101082.13;;;8.14;66.13
71126;BME280;58785;55.566;38.058;2023-04-06T05:08:40;101074.91;;;8.16;66.17
71126;BME280;58785;55.566;38.058;2023-04-06T05:11:06;101071.84;;;8.34;65.71
71126;BME280;58785;55.566;38.058;2023-04-06T05:13:32;101076.59;;;8.42;65.45
71126;BME280;58785;55.566;38.058;2023-04-06T05:15:58;101070.72;;;8.50;65.19
71126;BME280;58785;55.566;38.058;2023-04-06T05:18:23;101062.06;;;8.59;64.82
71126;BME280;58785;55.566;38.058;2023-04-06T05:20:49;101070.97;;;8.71;64.73
71126;BME280;58785;55.566;38.058;2023-04-06T05:23:16;101077.97;;;8.84;64.47
71126;BME280;58785;55.566;38.058;2023-04-06T05:25:42;101076.38;;;8.82;64.15
71126;BME280;58785;55.566;38.058;2023-04-06T05:28:08;101056.63;;;8.73;63.59
71126;BME280;58785;55.566;38.058;2023-04-06T05:30:33;101081.56;;;8.83;63.55
71126;BME280;58785;55.566;38.058;2023-04-06T05:33:01;101068.03;;;8.86;63.54
71126;BME280;58785;55.566;38.058;2023-04-06T05:35:26;101080.91;;;8.92;63.32
71126;BME280;58785;55.566;38.058;2023-04-06T05:37:52;101068.94;;;8.98;63.23
71126;BME280;58785;55.566;38.058;2023-04-06T05:40:20;101064.75;;;9.07;62.99
71126;BME280;58785;55.566;38.058;2023-04-06T05:42:46;101073.34;;;9.34;63.03
71126;BME280;58785;55.566;38.058;2023-04-06T05:45:15;101060.78;;;9.47;62.40
71126;BME280;58785;55.566;38.058;2023-04-06T05:47:45;101065.88;;;9.62;61.87
71126;BME280;58785;55.566;38.058;2023-04-06T05:50:11;101071.34;;;9.71;61.53
71126;BME280;58785;55.566;38.058;2023-04-06T05:52:37;101077.06;;;9.78;61.69
71126;BME280;58785;55.566;38.058;2023-04-06T05:55:03;101063.50;;;9.81;61.55
71126;BME280;58785;55.566;38.058;2023-04-06T05:57:30;101078.31;;;9.96;61.52
71126;BME280;58785;55.566;38.058;2023-04-06T05:59:55;101074.81;;;10.07;61.10
71126;BME280;58785;55.566;38.058;2023-04-06T06:02:21;101073.81;;;10.19;60.35
71126;BME280;58785;55.566;38.058;2023-04-06T06:04:48;101079.69;;;10.35;60.50
71126;BME280;58785;55.566;38.058;2023-04-06T06:07:17;101086.13;;;10.33;59.69
71126;BME280;58785;55.566;38.058;2023-04-06T06:09:43;101069.03;;;10.24;60.22
71126;BME280;58785;55.566;38.058;2023-04-06T06:12:08;101075.44;;;10.44;59.58
71126;BME280;58785;55.566;38.058;2023-04-06T06:14:34;101080.25;;;10.50;59.45
71126;BME280;58785;55.566;38.058;2023-04-06T06:17:00;101074.69;;;10.53;59.84
71126;BME280;58785;55.566;38.058;2023-04-06T06:19:25;101069.38;;;10.53;59.75
71126;BME280;58785;55.566;38.058;2023-04-06T06:21:51;101068.34;;;10.77;59.08
71126;BME280;58785;55.566;38.058;2023-04-06T06:24:17;101062.53;;;10.83;58.73
71126;BME280;58785;55.566;38.058;2023-04-06T06:26:42;101071.38;;;10.83;58.74
71126;BME280;58785;55.566;38.058;2023-04-06T06:29:08;101067.09;;;10.81;58.47
71126;BME280;58785;55.566;38.058;2023-04-06T06:31:34;101061.91;;;10.79;58.70
71126;BME280;58785;55.566;38.058;2023-04-06T06:34:00;101072.75;;;10.99;58.40
71126;BME280;58785;55.566;38.058;2023-04-06T06:36:27;101069.81;;;11.13;58.13
71126;BME280;58785;55.566;38.058;2023-04-06T06:38:53;101073.28;;;11.25;57.80
71126;BME280;58785;55.566;38.058;2023-04-06T06:41:19;101077.03;;;11.22;57.27
71126;BME280;58785;55.566;38.058;2023-04-06T06:43:44;101071.25;;;11.17;57.45
71126;BME280;58785;55.566;38.058;2023-04-06T06:46:10;101074.63;;;11.19;57.92
71126;BME280;58785;55.566;38.058;2023-04-06T06:48:35;101079.91;;;11.30;57.14
71126;BME280;58785;55.566;38.058;2023-04-06T06:51:01;101064.28;;;11.26;56.95
71126;BME280;58785;55.566;38.058;2023-04-06T06:53:27;101069.75;;;11.24;57.10
71126;BME280;58785;55.566;38.058;2023-04-06T06:55:53;101064.28;;;11.26;57.44
71126;BME280;58785;55.566;38.058;2023-04-06T06:58:19;101070.81;;;11.33;57.15
71126;BME280;58785;55.566;38.058;2023-04-06T07:00:45;101072.59;;;11.43;56.97
71126;BME280;58785;55.566;38.058;2023-04-06T07:03:11;101063.47;;;11.46;56.52
71126;BME280;58785;55.566;38.058;2023-04-06T07:05:37;101071.69;;;11.54;56.44
71126;BME280;58785;55.566;38.058;2023-04-06T07:08:03;101070.34;;;11.69;56.53
71126;BME280;58785;55.566;38.058;2023-04-06T07:10:29;101050.38;;;11.64;56.31
71126;BME280;58785;55.566;38.058;2023-04-06T07:12:54;101065.56;;;11.63;55.53
71126;BME280;58785;55.566;38.058;2023-04-06T07:15:20;101060.78;;;11.67;56.68
71126;BME280;58785;55.566;38.058;2023-04-06T07:17:46;101066.56;;;11.83;55.93
71126;BME280;58785;55.566;38.058;2023-04-06T07:20:12;101066.00;;;11.89;55.50
71126;BME280;58785;55.566;38.058;2023-04-06T07:22:38;101057.84;;;11.91;55.39
71126;BME280;58785;55.566;38.058;2023-04-06T07:25:04;101068.41;;;11.92;55.42
71126;BME280;58785;55.566;38.058;2023-04-06T07:27:31;101061.03;;;12.05;55.16
71126;BME280;58785;55.566;38.058;2023-04-06T07:29:56;101064.88;;;12.22;54.92
71126;BME280;58785;55.566;38.058;2023-04-06T07:32:22;101063.09;;;12.32;54.33
71126;BME280;58785;55.566;38.058;2023-04-06T07:34:48;101057.22;;;12.38;54.72
71126;BME280;58785;55.566;38.058;2023-04-06T07:37:14;101062.44;;;12.50;54.10
71126;BME280;58785;55.566;38.058;2023-04-06T07:39:39;101064.31;;;12.59;54.30
71126;BME280;58785;55.566;38.058;2023-04-06T07:42:05;101058.97;;;12.69;53.71
71126;BME280;58785;55.566;38.058;2023-04-06T07:44:31;101053.66;;;12.78;53.62
71126;BME280;58785;55.566;38.058;2023-04-06T07:46:57;101059.03;;;12.98;54.05
71126;BME280;58785;55.566;38.058;2023-04-06T07:49:23;101056.66;;;13.04;53.24
71126;BME280;58785;55.566;38.058;2023-04-06T07:51:49;101065.22;;;13.08;53.31
71126;BME280;58785;55.566;38.058;2023-04-06T07:54:14;101054.97;;;13.13;53.00
71126;BME280;58785;55.566;38.058;2023-04-06T07:56:40;101066.66;;;13.21;53.09
71126;BME280;58785;55.566;38.058;2023-04-06T07:59:06;101055.22;;;13.10;52.87
71126;BME280;58785;55.566;38.058;2023-04-06T08:01:32;101062.41;;;13.09;52.20
71126;BME280;58785;55.566;38.058;2023-04-06T08:03:57;101064.53;;;13.06;52.31
71126;BME280;58785;55.566;38.058;2023-04-06T08:06:23;101065.22;;;12.98;52.44
71126;BME280;58785;55.566;38.058;2023-04-06T08:08:49;101049.59;;;13.03;52.43
71126;BME280;58785;55.566;38.058;2023-04-06T08:11:14;101058.53;;;13.23;52.32
71126;BME280;58785;55.566;38.058;2023-04-06T08:13:40;101046.66;;;13.35;52.13
71126;BME280;58785;55.566;38.058;2023-04-06T08:16:06;101054.69;;;13.55;51.72
71126;BME280;58785;55.566;38.058;2023-04-06T08:18:32;101053.84;;;13.54;51.38
71126;BME280;58785;55.566;38.058;2023-04-06T08:20:58;101063.41;;;13.57;51.61
71126;BME280;58785;55.566;38.058;2023-04-06T08:23:23;101055.22;;;13.58;51.45
71126;BME280;58785;55.566;38.058;2023-04-06T08:25:49;101060.03;;;13.55;51.09
71126;BME280;58785;55.566;38.058;2023-04-06T08:28:15;101068.63;;;13.48;51.13
71126;BME280;58785;55.566;38.058;2023-04-06T08:30:42;101072.59;;;13.44;51.05
71126;BME280;58785;55.566;38.058;2023-04-06T08:33:08;101053.25;;;13.41;51.14
71126;BME280;58785;55.566;38.058;2023-04-06T08:35:34;101052.56;;;13.48;51.02
71126;BME280;58785;55.566;38.058;2023-04-06T08:38:00;101050.31;;;13.54;50.94
71126;BME280;58785;55.566;38.058;2023-04-06T08:40:27;101051.41;;;13.61;50.91
71126;BME280;58785;55.566;38.058;2023-04-06T08:42:55;101042.34;;;13.71;50.41
71126;BME280;58785;55.566;38.058;2023-04-06T08:45:21;101063.63;;;13.82;50.61
71126;BME280;58785;55.566;38.058;2023-04-06T08:47:51;101058.72;;;13.78;49.86
71126;BME280;58785;55.566;38.058;2023-04-06T08:50:18;101055.03;;;13.79;50.16
71126;BME280;58785;55.566;38.058;2023-04-06T08:52:46;101039.78;;;13.79;50.43
71126;BME280;58785;55.566;38.058;2023-04-06T08:55:12;101044.28;;;13.89;49.82
71126;BME280;58785;55.566;38.058;2023-04-06T08:57:38;101038.50;;;13.93;49.79
71126;BME280;58785;55.566;38.058;2023-04-06T09:00:06;101040.44;;;14.01;50.04
71126;BME280;58785;55.566;38.058;2023-04-06T09:02:33;101034.91;;;14.02;50.08
71126;BME280;58785;55.566;38.058;2023-04-06T09:05:00;101033.09;;;14.03;49.71
71126;BME280;58785;55.566;38.058;2023-04-06T09:07:26;101043.78;;;14.13;49.77
71126;BME280;58785;55.566;38.058;2023-04-06T09:09:52;101038.25;;;14.24;49.42
71126;BME280;58785;55.566;38.058;2023-04-06T09:12:28;101028.34;;;14.24;48.65
71126;BME280;58785;55.566;38.058;2023-04-06T09:14:55;101024.81;;;14.24;48.95
71126;BME280;58785;55.566;38.058;2023-04-06T09:17:25;101033.84;;;14.23;49.17
71126;BME280;58785;55.566;38.058;2023-04-06T09:19:51;101032.56;;;14.27;49.30
71126;BME280;58785;55.566;38.058;2023-04-06T09:22:17;101024.63;;;14.35;49.24
71126;BME280;58785;55.566;38.058;2023-04-06T09:24:51;101028.53;;;14.41;48.79
71126;BME280;58785;55.566;38.058;2023-04-06T09:27:18;101043.00;;;14.30;48.53
71126;BME280;58785;55.566;38.058;2023-04-06T09:30:08;101027.88;;;14.29;48.74
71126;BME280;58785;55.566;38.058;2023-04-06T09:32:49;101030.53;;;14.38;48.12
71126;BME280;58785;55.566;38.058;2023-04-06T09:35:16;101011.22;;;14.35;48.54
71126;BME280;58785;55.566;38.058;2023-04-06T09:37:46;101001.38;;;14.26;48.13
71126;BME280;58785;55.566;38.058;2023-04-06T09:40:13;101026.31;;;14.36;48.72
71126;BME280;58785;55.566;38.058;2023-04-06T09:42:44;101017.63;;;14.42;48.37
71126;BME280;58785;55.566;38.058;2023-04-06T09:45:10;101015.41;;;14.47;48.51
71126;BME280;58785;55.566;38.058;2023-04-06T09:47:37;101017.63;;;14.42;48.07
71126;BME280;58785;55.566;38.058;2023-04-06T09:50:03;101021.31;;;14.41;47.73
71126;BME280;58785;55.566;38.058;2023-04-06T09:52:33;101017.09;;;14.48;48.13
71126;BME280;58785;55.566;38.058;2023-04-06T09:55:03;101026.22;;;14.55;48.15
71126;BME280;58785;55.566;38.058;2023-04-06T09:58:01;101005.97;;;14.61;47.99
71126;BME280;58785;55.566;38.058;2023-04-06T10:00:25;101012.41;;;14.50;47.63
71126;BME280;58785;55.566;38.058;2023-04-06T10:04:16;101015.50;;;14.55;47.27
71126;BME280;58785;55.566;38.058;2023-04-06T10:06:10;101016.88;;;14.59;46.99
71126;BME280;58785;55.566;38.058;2023-04-06T10:08:38;101009.81;;;14.58;47.32
71126;BME280;58785;55.566;38.058;2023-04-06T10:11:09;101007.13;;;14.58;47.68
71126;BME280;58785;55.566;38.058;2023-04-06T10:13:35;101008.22;;;14.65;47.45
71126;BME280;58785;55.566;38.058;2023-04-06T10:16:01;101018.91;;;14.75;47.63
71126;BME280;58785;55.566;38.058;2023-04-06T10:18:28;101011.53;;;14.77;46.85
71126;BME280;58785;55.566;38.058;2023-04-06T10:21:11;101002.63;;;14.77;47.31
71126;BME280;58785;55.566;38.058;2023-04-06T10:24:00;101004.09;;;14.89;47.02
71126;BME280;58785;55.566;38.058;2023-04-06T10:26:27;101011.81;;;14.92;46.92
71126;BME280;58785;55.566;38.058;2023-04-06T10:28:53;101009.63;;;14.87;46.77
71126;BME280;58785;55.566;38.058;2023-04-06T10:31:26;101003.16;;;14.80;46.71
71126;BME280;58785;55.566;38.058;2023-04-06T10:34:00;101008.53;;;14.80;46.13
71126;BME280;58785;55.566;38.058;2023-04-06T10:36:31;101007.94;;;14.86;46.59
71126;BME280;58785;55.566;38.058;2023-04-06T10:38:59;101003.09;;;14.90;46.10
71126;BME280;58785;55.566;38.058;2023-04-06T10:41:32;101001.78;;;14.94;46.48
71126;BME280;58785;55.566;38.058;2023-04-06T10:43:58;100998.41;;;14.92;45.97
71126;BME280;58785;55.566;38.058;2023-04-06T10:46:26;101003.31;;;14.97;45.97
71126;BME280;58785;55.566;38.058;2023-04-06T10:48:52;100997.47;;;15.01;45.64
71126;BME280;58785;55.566;38.058;2023-04-06T10:51:18;100999.47;;;14.99;45.51
71126;BME280;58785;55.566;38.058;2023-04-06T10:53:46;100991.19;;;14.92;44.71
71126;BME280;58785;55.566;38.058;2023-04-06T10:56:15;100985.53;;;14.78;44.96
71126;BME280;58785;55.566;38.058;2023-04-06T10:58:45;100986.03;;;14.81;45.23
71126;BME280;58785;55.566;38.058;2023-04-06T11:01:12;100977.00;;;14.82;44.68
71126;BME280;58785;55.566;38.058;2023-04-06T11:03:47;100999.19;;;14.84;44.44
71126;BME280;58785;55.566;38.058;2023-04-06T11:06:23;101001.25;;;14.90;43.97
71126;BME280;58785;55.566;38.058;2023-04-06T11:08:50;101000.09;;;14.93;44.56
71126;BME280;58785;55.566;38.058;2023-04-06T11:11:18;100997.94;;;14.97;44.63
71126;BME280;58785;55.566;38.058;2023-04-06T11:13:51;100994.94;;;15.00;43.89
71126;BME280;58785;55.566;38.058;2023-04-06T11:18:59;100994.41;;;14.96;43.20
71126;BME280;58785;55.566;38.058;2023-04-06T11:21:39;100992.25;;;15.00;44.15
71126;BME280;58785;55.566;38.058;2023-04-06T11:24:08;101004.41;;;15.04;43.86
71126;BME280;58785;55.566;38.058;2023-04-06T11:29:11;100992.41;;;14.98;44.22
71126;BME280;58785;55.566;38.058;2023-04-06T11:31:41;100994.59;;;14.94;44.03
71126;BME280;58785;55.566;38.058;2023-04-06T11:34:20;100995.44;;;14.95;44.43
71126;BME280;58785;55.566;38.058;2023-04-06T11:36:48;100993.19;;;14.90;43.59
71126;BME280;58785;55.566;38.058;2023-04-06T11:39:19;100986.97;;;14.90;44.07
71126;BME280;58785;55.566;38.058;2023-04-06T11:41:49;100984.53;;;14.97;43.99
71126;BME280;58785;55.566;38.058;2023-04-06T11:44:15;101000.00;;;15.03;43.59
71126;BME280;58785;55.566;38.058;2023-04-06T11:46:40;100987.56;;;15.02;43.03
71126;BME280;58785;55.566;38.058;2023-04-06T11:49:06;100994.94;;;15.00;43.73
71126;BME280;58785;55.566;38.058;2023-04-06T11:51:35;100982.00;;;14.95;43.18
71126;BME280;58785;55.566;38.058;2023-04-06T11:54:02;100983.13;;;14.92;43.48
71126;BME280;58785;55.566;38.058;2023-04-06T11:56:29;100973.69;;;14.88;43.67
71126;BME280;58785;55.566;38.058;2023-04-06T11:58:57;100994.59;;;14.94;43.88
71126;BME280;58785;55.566;38.058;2023-04-06T12:01:23;100977.91;;;14.91;43.75
71126;BME280;58785;55.566;38.058;2023-04-06T12:03:50;100983.00;;;14.94;43.80
71126;BME280;58785;55.566;38.058;2023-04-06T12:06:17;100958.59;;;14.87;43.40
71126;BME280;58785;55.566;38.058;2023-04-06T12:08:42;100985.13;;;14.90;43.88
71126;BME280;58785;55.566;38.058;2023-04-06T12:11:08;100984.69;;;14.95;43.71
71126;BME280;58785;55.566;38.058;2023-04-06T12:13:34;100982.16;;;14.93;43.96
71126;BME280;58785;55.566;38.058;2023-04-06T12:15:59;100968.34;;;14.88;43.56
71126;BME280;58785;55.566;38.058;2023-04-06T12:18:25;100977.53;;;14.86;44.18
71126;BME280;58785;55.566;38.058;2023-04-06T12:20:51;100978.84;;;14.82;43.96
71126;BME280;58785;55.566;38.058;2023-04-06T12:23:19;100987.59;;;14.84;43.78
71126;BME280;58785;55.566;38.058;2023-04-06T12:25:45;100991.41;;;14.81;43.60
71126;BME280;58785;55.566;38.058;2023-04-06T12:28:10;100980.69;;;14.81;44.06
71126;BME280;58785;55.566;38.058;2023-04-06T12:30:36;100980.41;;;14.84;44.16
71126;BME280;58785;55.566;38.058;2023-04-06T12:33:02;100976.03;;;14.83;43.84
71126;BME280;58785;55.566;38.058;2023-04-06T12:35:28;100964.88;;;14.78;43.41
71126;BME280;58785;55.566;38.058;2023-04-06T12:37:54;100978.16;;;14.80;43.37
71126;BME280;58785;55.566;38.058;2023-04-06T12:40:20;100968.41;;;14.79;43.30
71126;BME280;58785;55.566;38.058;2023-04-06T12:42:46;100977.53;;;14.86;43.48
71126;BME280;58785;55.566;38.058;2023-04-06T12:45:12;100972.84;;;14.88;43.74
71126;BME280;58785;55.566;38.058;2023-04-06T12:47:38;100966.13;;;14.84;43.51
71126;BME280;58785;55.566;38.058;2023-04-06T12:50:04;100968.94;;;14.82;43.47